Time;durP1;ratioP1;P1;durP2;ratioP2;P2;SDS_P1;SDS_P2;PMS_P1;PMS_P2;Temp;Humidity;BMP_temperature;BMP_pressure;BME280_temperature;BME280_humidity;BME280_pressure;Samples;Min_cycle;Max_cycle;Signal;HPM_P1;HPM_P2
2023/10/03 00:00:24;;;;;;;18.73;8.52;;;17.30;99.90;;;;;;4991778;28;20193;-76
2023/10/03 00:02:55;;;;;;;17.10;7.38;;;17.20;99.90;;;;;;4990411;28;20201;-67
2023/10/03 00:05:24;;;;;;;17.88;7.10;;;17.10;99.90;;;;;;4973256;28;20557;-69
2023/10/03 00:07:52;;;;;;;20.77;8.30;;;17.00;99.90;;;;;;4995695;28;20721;-68
2023/10/03 00:10:19;;;;;;;19.75;7.53;;;16.90;99.90;;;;;;4986918;28;20663;-64
2023/10/03 00:12:51;;;;;;;13.73;6.18;;;16.90;99.90;;;;;;4990864;28;20654;-64
2023/10/03 00:15:20;;;;;;;15.60;6.47;;;16.90;99.90;;;;;;4988888;28;20213;-65
2023/10/03 00:17:48;;;;;;;19.65;7.70;;;16.90;99.90;;;;;;4996507;28;20257;-65
2023/10/03 00:20:16;;;;;;;18.90;7.20;;;16.80;99.90;;;;;;4982104;28;20194;-65
2023/10/03 00:22:44;;;;;;;17.30;7.28;;;16.80;99.90;;;;;;4980439;28;20232;-64
2023/10/03 00:25:17;;;;;;;16.08;7.20;;;16.70;99.90;;;;;;4987393;28;20207;-66
2023/10/03 00:27:50;;;;;;;15.63;6.97;;;16.70;99.90;;;;;;4984682;28;20280;-64
2023/10/03 00:30:24;;;;;;;13.52;6.60;;;16.70;99.90;;;;;;4996472;28;20665;-64
2023/10/03 00:32:58;;;;;;;14.80;6.47;;;16.60;99.90;;;;;;4982273;28;20228;-66
2023/10/03 00:35:29;;;;;;;16.77;7.10;;;16.60;99.90;;;;;;4985233;28;20282;-67
2023/10/03 00:37:56;;;;;;;20.80;7.47;;;16.60;99.90;;;;;;4986669;28;20224;-65
2023/10/03 00:43:00;;;;;;;17.52;7.03;;;16.60;99.90;;;;;;5036095;28;20211;-64
2023/10/03 00:45:34;;;;;;;19.60;6.97;;;16.50;99.90;;;;;;5024427;28;20188;-64
2023/10/03 00:48:11;;;;;;;21.13;6.85;;;16.50;99.90;;;;;;5053827;28;20216;-65
2023/10/03 00:50:39;;;;;;;15.88;7.32;;;16.40;99.90;;;;;;5041164;28;20723;-64
2023/10/03 00:53:12;;;;;;;20.65;8.57;;;16.40;99.90;;;;;;5034454;28;20584;-65
2023/10/03 00:55:43;;;;;;;20.23;7.80;;;16.40;99.90;;;;;;5040430;28;20210;-64
2023/10/03 01:00:40;;;;;;;13.07;7.20;;;16.40;99.90;;;;;;5033531;28;20211;-63
2023/10/03 01:03:37;;;;;;;16.48;7.68;;;16.40;99.90;;;;;;5027890;28;20208;-64
2023/10/03 01:06:11;;;;;;;16.15;7.05;;;16.40;99.90;;;;;;5026945;28;20184;-64
2023/10/03 01:08:46;;;;;;;17.52;8.18;;;16.40;99.90;;;;;;5036408;28;20208;-64
2023/10/03 01:11:15;;;;;;;19.23;7.38;;;16.30;99.90;;;;;;5027701;28;20295;-64
2023/10/03 01:13:56;;;;;;;18.33;7.78;;;16.30;99.90;;;;;;5024794;28;20203;-63
2023/10/03 01:16:36;;;;;;;17.38;7.75;;;16.30;99.90;;;;;;5024532;28;20204;-64
2023/10/03 01:19:12;;;;;;;14.63;7.32;;;16.30;99.90;;;;;;5012515;28;20232;-63
2023/10/03 01:21:41;;;;;;;18.33;6.57;;;16.30;99.90;;;;;;5026349;28;20208;-64
2023/10/03 01:24:15;;;;;;;17.65;7.22;;;16.30;99.90;;;;;;5016750;28;20197;-65
2023/10/03 01:26:44;;;;;;;14.60;7.22;;;16.30;99.90;;;;;;5014189;28;20192;-66
2023/10/03 01:29:11;;;;;;;19.60;7.90;;;16.30;99.90;;;;;;5039384;28;20290;-65
2023/10/03 01:31:42;;;;;;;22.55;8.07;;;16.30;99.90;;;;;;5016040;28;20197;-64
2023/10/03 01:34:09;;;;;;;17.00;7.22;;;16.40;99.90;;;;;;5019221;28;20213;-63
2023/10/03 01:36:36;;;;;;;15.30;6.70;;;16.40;99.90;;;;;;5023663;28;20204;-65
2023/10/03 01:39:03;;;;;;;17.67;7.78;;;16.40;99.90;;;;;;5024317;28;20227;-64
2023/10/03 01:41:31;;;;;;;16.83;7.30;;;16.40;99.90;;;;;;5020469;28;20647;-66
2023/10/03 01:43:58;;;;;;;19.92;7.50;;;16.40;99.90;;;;;;5022259;28;20196;-64
2023/10/03 01:46:26;;;;;;;18.33;7.40;;;16.50;99.90;;;;;;5022659;28;20649;-65
2023/10/03 01:48:53;;;;;;;15.52;7.93;;;16.50;99.90;;;;;;5028379;28;20226;-65
2023/10/03 01:51:21;;;;;;;14.05;7.38;;;16.60;99.90;;;;;;5022854;28;20653;-64
2023/10/03 01:53:48;;;;;;;13.85;6.70;;;16.60;99.90;;;;;;5026474;28;20201;-64
2023/10/03 01:56:15;;;;;;;18.50;7.47;;;16.60;99.90;;;;;;5022021;28;21086;-65
2023/10/03 01:58:43;;;;;;;16.77;7.30;;;16.60;99.90;;;;;;5022400;28;20560;-64
2023/10/03 02:05:12;;;;;;;13.32;7.72;;;16.60;99.90;;;;;;5021876;28;20314;-67
2023/10/03 02:07:39;;;;;;;16.63;7.35;;;16.60;99.90;;;;;;5015251;28;20271;-65
2023/10/03 02:10:06;;;;;;;17.10;7.55;;;16.60;99.90;;;;;;5024709;28;20243;-69
2023/10/03 02:12:33;;;;;;;20.85;8.13;;;16.60;99.90;;;;;;5014074;28;20620;-63
2023/10/03 02:15:07;;;;;;;17.02;7.45;;;16.50;99.90;;;;;;5027621;28;20187;-64
2023/10/03 02:17:34;;;;;;;21.60;7.72;;;16.50;99.90;;;;;;5041802;28;20219;-64
2023/10/03 02:20:08;;;;;;;14.93;7.43;;;16.50;99.90;;;;;;5040459;28;20209;-65
2023/10/03 02:22:38;;;;;;;13.18;6.53;;;16.60;99.90;;;;;;5029031;28;20207;-64
2023/10/03 02:25:08;;;;;;;16.80;6.82;;;16.50;99.90;;;;;;5037682;28;20279;-66
2023/10/03 02:27:35;;;;;;;20.48;7.53;;;16.60;99.90;;;;;;5023424;28;20676;-64
2023/10/03 02:30:09;;;;;;;14.15;5.95;;;16.50;99.90;;;;;;5033023;28;20251;-64
2023/10/03 02:32:41;;;;;;;13.15;7.20;;;16.60;99.90;;;;;;5026665;28;20242;-64
2023/10/03 02:35:09;;;;;;;18.85;9.60;;;17.30;99.90;;;;;;5036637;28;20668;-64
2023/10/03 02:37:38;;;;;;;18.55;8.13;;;17.70;99.90;;;;;;5018355;28;20200;-63
2023/10/03 02:40:09;;;;;;;40.70;24.60;;;18.00;99.90;;;;;;5035912;28;20236;-63
2023/10/03 02:42:39;;;;;;;27.25;14.60;;;18.20;99.90;;;;;;5034857;28;20200;-74
2023/10/03 02:45:08;;;;;;;21.33;8.88;;;18.50;99.90;;;;;;5030005;28;20206;-64
2023/10/03 02:47:39;;;;;;;29.95;15.85;;;18.50;99.90;;;;;;5026409;28;20197;-64
2023/10/03 02:50:07;;;;;;;26.63;13.85;;;18.60;99.90;;;;;;5031162;28;20205;-63
2023/10/03 02:52:36;;;;;;;36.70;20.05;;;18.70;99.90;;;;;;5030427;28;20687;-63
2023/10/03 02:55:03;;;;;;;22.15;8.75;;;18.70;99.90;;;;;;5046043;28;20197;-64
2023/10/03 02:57:31;;;;;;;17.55;7.20;;;18.70;99.90;;;;;;5028283;28;20709;-65
2023/10/03 02:59:57;;;;;;;16.17;7.80;;;18.70;99.90;;;;;;5023194;28;20544;-64
2023/10/03 03:02:25;;;;;;;17.40;6.80;;;18.90;99.90;;;;;;5031318;28;20183;-64
2023/10/03 03:04:52;;;;;;;15.85;6.72;;;18.90;99.90;;;;;;5049364;28;20188;-65
2023/10/03 03:07:19;;;;;;;16.10;6.28;;;19.20;99.90;;;;;;5029466;28;20199;-63
2023/10/03 03:09:47;;;;;;;17.73;7.80;;;19.20;99.90;;;;;;5039869;28;20735;-64
2023/10/03 03:12:16;;;;;;;16.33;6.63;;;19.50;99.90;;;;;;5023174;28;20877;-65
2023/10/03 03:14:43;;;;;;;18.30;7.68;;;19.40;99.90;;;;;;5026278;28;20277;-72
2023/10/03 03:17:14;;;;;;;17.63;7.05;;;19.40;99.90;;;;;;5034110;28;20220;-68
2023/10/03 03:19:44;;;;;;;19.98;7.93;;;19.60;99.90;;;;;;5023794;28;20200;-69
2023/10/03 03:22:16;;;;;;;17.42;7.07;;;19.70;99.90;;;;;;5019666;28;20251;-71
2023/10/03 03:24:46;;;;;;;20.08;7.50;;;19.80;99.90;;;;;;5028643;28;20348;-65
2023/10/03 03:27:17;;;;;;;19.17;6.75;;;19.80;99.90;;;;;;5028656;28;20649;-65
2023/10/03 03:30:10;;;;;;;20.60;7.32;;;19.90;99.90;;;;;;5011781;28;20199;-64
2023/10/03 03:32:34;;;;;;;15.80;6.57;;;19.70;99.90;;;;;;5015398;28;20299;-64
2023/10/03 03:35:02;;;;;;;15.20;6.25;;;19.70;99.90;;;;;;5023097;28;20242;-68
2023/10/03 03:37:37;;;;;;;19.67;6.80;;;19.80;99.90;;;;;;5023685;28;20197;-64
2023/10/03 03:40:25;;;;;;;15.50;6.60;;;19.90;99.90;;;;;;5017634;28;20231;-65
2023/10/03 03:42:52;;;;;;;14.27;6.00;;;20.00;99.90;;;;;;5012026;28;20193;-70
2023/10/03 03:45:21;;;;;;;17.58;6.38;;;20.00;99.90;;;;;;5025073;28;20660;-65
2023/10/03 03:47:51;;;;;;;14.98;6.30;;;19.90;99.90;;;;;;5026459;28;20215;-66
2023/10/03 03:50:18;;;;;;;16.83;6.07;;;20.10;99.90;;;;;;5016144;28;20553;-64
2023/10/03 03:52:45;;;;;;;17.88;7.32;;;20.10;99.90;;;;;;5015587;28;20656;-65
2023/10/03 03:55:12;;;;;;;13.57;6.50;;;19.90;99.90;;;;;;5021703;28;20192;-65
2023/10/03 03:57:39;;;;;;;14.63;6.45;;;19.90;99.90;;;;;;5017333;28;20270;-65
2023/10/03 04:00:19;;;;;;;11.82;5.45;;;19.80;99.90;;;;;;5027207;28;20295;-69
2023/10/03 04:02:48;;;;;;;12.40;6.35;;;20.00;99.90;;;;;;5021812;28;20184;-68
2023/10/03 04:05:18;;;;;;;18.80;6.78;;;19.90;99.90;;;;;;5020158;28;20676;-65
2023/10/03 04:07:45;;;;;;;14.63;6.50;;;19.70;99.90;;;;;;5018860;28;20903;-65
2023/10/03 04:10:14;;;;;;;16.02;6.25;;;19.80;99.90;;;;;;5027427;28;20195;-65
2023/10/03 04:12:41;;;;;;;13.20;6.25;;;19.70;99.90;;;;;;5021828;28;20197;-71
2023/10/03 04:15:14;;;;;;;14.18;6.30;;;19.80;99.90;;;;;;5025945;28;20311;-63
2023/10/03 04:17:46;;;;;;;18.73;6.03;;;19.70;99.90;;;;;;5027435;28;20212;-68
2023/10/03 04:20:23;;;;;;;16.50;6.00;;;19.60;99.90;;;;;;5022780;28;20216;-65
2023/10/03 04:22:53;;;;;;;12.57;6.20;;;19.50;99.90;;;;;;5025825;28;20196;-65
2023/10/03 04:25:20;;;;;;;14.80;5.78;;;19.70;99.90;;;;;;5029732;28;20196;-65
2023/10/03 04:27:49;;;;;;;17.85;6.35;;;19.60;99.90;;;;;;5022237;28;20594;-65
2023/10/03 04:30:19;;;;;;;17.33;6.43;;;19.90;99.90;;;;;;5020073;28;20499;-65
2023/10/03 04:32:49;;;;;;;12.70;5.65;;;19.90;99.90;;;;;;5024118;28;20262;-66
2023/10/03 04:35:20;;;;;;;14.35;5.43;;;19.90;99.90;;;;;;5009913;28;20601;-70
2023/10/03 04:37:56;;;;;;;15.90;6.45;;;20.20;99.90;;;;;;5025625;28;20222;-66
2023/10/03 04:40:28;;;;;;;13.35;5.47;;;20.20;99.90;;;;;;5021439;28;20547;-68
2023/10/03 04:42:56;;;;;;;16.88;7.03;;;20.40;99.90;;;;;;5034155;28;20192;-67
2023/10/03 04:45:23;;;;;;;15.52;6.32;;;20.30;99.90;;;;;;5025121;28;20189;-65
2023/10/03 04:47:50;;;;;;;11.77;5.45;;;20.50;99.90;;;;;;5024845;28;20510;-65
2023/10/03 04:50:19;;;;;;;18.35;6.50;;;20.60;99.90;;;;;;5022227;28;20813;-65
2023/10/03 04:52:48;;;;;;;13.57;5.35;;;20.70;99.90;;;;;;5027245;28;20710;-65
2023/10/03 04:55:18;;;;;;;15.98;6.88;;;20.70;99.90;;;;;;5025047;28;20203;-65
2023/10/03 04:57:47;;;;;;;14.45;6.32;;;20.70;99.90;;;;;;5020688;28;20199;-64
2023/10/03 05:00:18;;;;;;;14.35;6.35;;;20.80;99.90;;;;;;5038390;28;20207;-64
2023/10/03 05:02:49;;;;;;;11.80;5.68;;;20.80;99.90;;;;;;5034158;28;20611;-63
2023/10/03 05:05:21;;;;;;;12.48;5.35;;;20.70;99.90;;;;;;5015770;28;20699;-64
2023/10/03 05:07:53;;;;;;;18.77;6.80;;;20.90;99.90;;;;;;5025016;28;20659;-64
2023/10/03 05:10:21;;;;;;;11.38;5.53;;;20.90;99.90;;;;;;5018411;28;20652;-64
2023/10/03 05:12:50;;;;;;;21.38;6.30;;;20.90;99.90;;;;;;5024148;28;20565;-65
2023/10/03 05:15:18;;;;;;;14.02;5.72;;;20.90;99.90;;;;;;5045024;28;20668;-65
2023/10/03 05:17:46;;;;;;;14.98;6.25;;;20.90;99.90;;;;;;5010537;28;20215;-70
2023/10/03 05:20:14;;;;;;;17.17;6.13;;;20.80;99.90;;;;;;5009891;28;20214;-66
2023/10/03 05:22:41;;;;;;;12.55;6.05;;;20.90;99.90;;;;;;5013585;28;20297;-70
2023/10/03 05:25:12;;;;;;;16.98;6.22;;;20.90;99.90;;;;;;5023853;28;20251;-64
2023/10/03 05:27:43;;;;;;;14.13;5.82;;;20.80;99.90;;;;;;5018905;28;20653;-79
2023/10/03 05:30:11;;;;;;;16.13;6.53;;;20.70;99.90;;;;;;5009359;28;20212;-70
2023/10/03 05:32:38;;;;;;;16.65;6.25;;;20.70;99.90;;;;;;5027038;28;20319;-64
2023/10/03 05:35:06;;;;;;;15.65;6.38;;;20.60;99.90;;;;;;5027311;28;20198;-64
2023/10/03 05:37:34;;;;;;;12.80;5.70;;;20.80;99.90;;;;;;5022259;28;20278;-64
2023/10/03 05:40:11;;;;;;;10.48;4.68;;;20.80;99.90;;;;;;5033189;28;20239;-65
2023/10/03 05:42:45;;;;;;;14.63;5.30;;;20.80;99.90;;;;;;5029161;28;20266;-64
2023/10/03 05:45:18;;;;;;;13.10;6.20;;;20.80;99.90;;;;;;5016389;28;20270;-66
2023/10/03 05:47:47;;;;;;;13.45;5.95;;;20.70;99.90;;;;;;5022005;28;20184;-70
2023/10/03 05:50:16;;;;;;;12.02;5.80;;;20.70;99.90;;;;;;5027959;28;20660;-69
2023/10/03 05:52:46;;;;;;;14.07;5.90;;;20.70;99.90;;;;;;5029571;28;20304;-69
2023/10/03 05:55:14;;;;;;;11.18;5.47;;;20.70;99.90;;;;;;5024966;28;20658;-68
2023/10/03 05:57:42;;;;;;;11.00;5.72;;;20.70;99.90;;;;;;5025919;28;20652;-68
2023/10/03 06:00:16;;;;;;;17.15;6.28;;;20.70;99.90;;;;;;5020570;28;20791;-71
2023/10/03 06:06:56;;;;;;;11.48;5.22;;;21.00;99.90;;;;;;5101789;22;20247;-63
2023/10/03 06:09:24;;;;;;;12.70;5.35;;;21.00;99.90;;;;;;5024923;28;20601;-67
2023/10/03 06:11:53;;;;;;;14.27;5.40;;;21.00;99.90;;;;;;5026086;28;20209;-64
2023/10/03 06:14:23;;;;;;;15.15;5.82;;;21.00;99.90;;;;;;5028988;28;20185;-65
2023/10/03 06:16:50;;;;;;;16.75;5.90;;;21.00;99.90;;;;;;5031309;28;20722;-64
2023/10/03 06:19:18;;;;;;;14.90;5.65;;;21.00;99.90;;;;;;5022457;28;20679;-62
2023/10/03 06:21:46;;;;;;;14.07;7.13;;;21.10;99.90;;;;;;5028882;28;20189;-62
2023/10/03 06:24:14;;;;;;;17.67;6.55;;;21.10;99.90;;;;;;5028943;28;20303;-63
2023/10/03 06:26:47;;;;;;;12.70;6.68;;;21.10;99.90;;;;;;5028537;28;20558;-78
2023/10/03 06:29:15;;;;;;;12.23;6.78;;;21.20;99.90;;;;;;5022881;28;20263;-67
2023/10/03 06:31:43;;;;;;;12.98;6.05;;;21.20;99.90;;;;;;5028753;28;20252;-64
2023/10/03 06:34:11;;;;;;;15.32;6.85;;;21.20;99.90;;;;;;5026914;28;20270;-69
2023/10/03 06:36:38;;;;;;;11.20;5.82;;;21.20;99.90;;;;;;5028286;28;20203;-64
2023/10/03 06:39:09;;;;;;;14.60;7.15;;;21.10;99.90;;;;;;5028034;28;20215;-63
2023/10/03 06:41:38;;;;;;;13.05;5.70;;;21.30;99.90;;;;;;5029344;28;20652;-64
2023/10/03 06:44:06;;;;;;;16.15;5.97;;;21.30;99.90;;;;;;5030155;28;20258;-64
2023/10/03 06:46:34;;;;;;;9.32;5.60;;;21.30;99.90;;;;;;5028093;28;20589;-63
2023/10/03 06:49:04;;;;;;;11.15;5.65;;;21.40;99.90;;;;;;5029246;28;20193;-65
2023/10/03 06:51:31;;;;;;;12.82;5.18;;;21.40;99.90;;;;;;5024637;28;20723;-64
2023/10/03 06:53:58;;;;;;;10.50;5.18;;;21.40;99.90;;;;;;5029403;28;20223;-63
2023/10/03 06:56:26;;;;;;;9.75;5.80;;;21.40;99.90;;;;;;5032154;28;20215;-62
2023/10/03 06:58:54;;;;;;;14.02;6.53;;;21.20;99.90;;;;;;5031027;28;20223;-66
2023/10/03 07:01:21;;;;;;;15.73;6.35;;;21.30;99.90;;;;;;5027763;28;20196;-66
2023/10/03 07:03:48;;;;;;;15.30;6.20;;;21.30;99.90;;;;;;5038330;28;20535;-65
2023/10/03 07:06:17;;;;;;;14.70;6.47;;;21.20;99.90;;;;;;5033494;28;20231;-63
2023/10/03 07:08:44;;;;;;;15.57;5.60;;;21.10;99.90;;;;;;5022808;28;20196;-64
2023/10/03 07:11:12;;;;;;;11.52;4.75;;;21.10;99.90;;;;;;5029446;28;20200;-73
2023/10/03 07:13:39;;;;;;;10.80;5.63;;;21.10;99.90;;;;;;5026904;28;20204;-63
2023/10/03 07:16:08;;;;;;;14.43;6.10;;;21.20;99.90;;;;;;5028807;28;20204;-68
2023/10/03 07:18:39;;;;;;;15.13;7.20;;;21.10;99.90;;;;;;5026072;28;20606;-69
2023/10/03 07:21:10;;;;;;;16.27;8.10;;;21.10;99.90;;;;;;5027573;28;20239;-68
2023/10/03 07:23:39;;;;;;;11.48;6.28;;;21.10;99.90;;;;;;5018644;28;20607;-69
2023/10/03 07:26:11;;;;;;;13.38;5.93;;;21.10;99.90;;;;;;5030240;28;20660;-69
2023/10/03 07:28:39;;;;;;;10.68;5.60;;;21.10;99.90;;;;;;5028853;28;20198;-68
2023/10/03 07:31:13;;;;;;;9.35;5.22;;;21.00;99.90;;;;;;5029250;28;20287;-71
2023/10/03 07:33:44;;;;;;;11.90;5.22;;;21.00;99.90;;;;;;5027230;28;20204;-66
2023/10/03 07:36:12;;;;;;;11.93;5.05;;;21.00;99.90;;;;;;5023335;28;20197;-67
2023/10/03 07:38:39;;;;;;;7.88;4.40;;;21.00;99.90;;;;;;5025612;28;20304;-68
2023/10/03 07:41:09;;;;;;;12.50;5.10;;;21.00;99.90;;;;;;5022474;28;20707;-68
2023/10/03 07:43:36;;;;;;;13.85;7.30;;;21.00;99.90;;;;;;5028415;28;20275;-70
2023/10/03 07:46:03;;;;;;;16.55;7.57;;;21.00;99.90;;;;;;5023796;28;20185;-71
2023/10/03 07:48:30;;;;;;;10.60;5.32;;;21.00;99.90;;;;;;5022892;28;20521;-63
2023/10/03 07:50:57;;;;;;;13.35;6.47;;;21.00;99.90;;;;;;5026528;28;20195;-64
2023/10/03 07:53:29;;;;;;;14.73;5.15;;;20.90;99.90;;;;;;5023915;28;20621;-70
2023/10/03 07:55:57;;;;;;;16.42;5.95;;;20.90;99.90;;;;;;5027039;28;20575;-67
2023/10/03 07:58:26;;;;;;;11.00;4.93;;;21.00;99.90;;;;;;5024403;28;20207;-66
2023/10/03 08:00:53;;;;;;;8.57;4.68;;;21.00;99.90;;;;;;5020716;28;20216;-63
2023/10/03 08:03:20;;;;;;;10.57;4.32;;;20.90;99.90;;;;;;5031616;28;20195;-63
2023/10/03 08:05:47;;;;;;;13.15;6.63;;;20.90;99.90;;;;;;5028541;28;20212;-63
2023/10/03 08:08:14;;;;;;;13.38;7.07;;;20.80;99.90;;;;;;5028996;28;20228;-63
2023/10/03 08:10:46;;;;;;;10.55;5.20;;;20.80;99.90;;;;;;5027965;28;20196;-63
2023/10/03 08:13:17;;;;;;;13.13;5.35;;;20.90;99.90;;;;;;5029856;28;20206;-63
2023/10/03 08:15:44;;;;;;;9.77;5.28;;;21.00;99.90;;;;;;5028418;28;20208;-63
2023/10/03 08:18:17;;;;;;;7.82;4.20;;;21.10;99.90;;;;;;5029638;28;20617;-68
2023/10/03 08:20:53;;;;;;;10.20;3.97;;;21.30;99.90;;;;;;5027449;28;20204;-64
2023/10/03 08:23:21;;;;;;;9.15;4.22;;;21.40;99.90;;;;;;5024997;28;20200;-65
2023/10/03 08:25:48;;;;;;;6.93;4.20;;;21.30;99.90;;;;;;5028788;28;20184;-64
2023/10/03 08:28:20;;;;;;;10.48;4.50;;;21.20;99.90;;;;;;5022284;28;20180;-63
2023/10/03 08:30:50;;;;;;;5.13;2.65;;;21.20;99.90;;;;;;5025862;28;20283;-68
2023/10/03 08:33:19;;;;;;;7.15;3.80;;;21.10;99.90;;;;;;5029292;28;20195;-67
2023/10/03 08:35:47;;;;;;;5.50;3.33;;;21.10;99.90;;;;;;5021573;28;20207;-68
2023/10/03 08:38:14;;;;;;;8.52;3.80;;;21.10;99.90;;;;;;5026971;28;20227;-68
2023/10/03 08:40:49;;;;;;;5.35;3.45;;;21.10;99.90;;;;;;5023381;28;20747;-68
2023/10/03 08:43:25;;;;;;;7.80;3.33;;;21.30;99.90;;;;;;5027728;28;20188;-78
2023/10/03 08:45:56;;;;;;;6.90;3.75;;;21.20;99.90;;;;;;5024001;28;20656;-67
2023/10/03 08:48:27;;;;;;;6.70;3.33;;;21.00;99.90;;;;;;5013211;28;20260;-66
2023/10/03 08:50:58;;;;;;;4.32;2.90;;;21.00;99.90;;;;;;5029121;28;20648;-72
2023/10/03 08:53:31;;;;;;;5.80;3.17;;;21.00;99.90;;;;;;5020635;28;20215;-76
2023/10/03 08:55:58;;;;;;;5.70;2.78;;;20.90;99.90;;;;;;5027758;28;20195;-72
2023/10/03 08:58:26;;;;;;;6.35;3.67;;;21.00;99.90;;;;;;5029581;28;20199;-70
2023/10/03 09:01:04;;;;;;;4.55;2.63;;;20.90;99.90;;;;;;5026013;28;20222;-69
2023/10/03 09:03:47;;;;;;;5.75;3.08;;;21.00;99.90;;;;;;5023773;28;20218;-68
2023/10/03 09:06:20;;;;;;;12.10;5.47;;;20.90;99.90;;;;;;5020134;28;20224;-69
2023/10/03 09:09:08;;;;;;;16.30;8.02;;;20.90;99.90;;;;;;5022681;28;20193;-70
2023/10/03 09:11:41;;;;;;;13.10;6.47;;;21.00;99.90;;;;;;5024524;28;20200;-72
2023/10/03 09:14:12;;;;;;;8.95;3.85;;;21.10;99.90;;;;;;5027219;28;20192;-68
2023/10/03 09:16:39;;;;;;;7.40;3.38;;;21.10;99.90;;;;;;5022260;28;20196;-69
2023/10/03 09:19:09;;;;;;;6.10;3.85;;;21.30;99.90;;;;;;5028887;28;20675;-70
2023/10/03 09:21:37;;;;;;;6.30;3.50;;;21.40;99.90;;;;;;5029839;28;20208;-69
2023/10/03 09:24:14;;;;;;;5.45;3.53;;;21.40;99.90;;;;;;5031680;28;20291;-65
2023/10/03 09:26:46;;;;;;;4.18;2.97;;;21.20;99.90;;;;;;5032949;28;20439;-66
2023/10/03 09:29:29;;;;;;;5.07;3.03;;;21.20;99.90;;;;;;5017326;28;20568;-67
2023/10/03 09:31:58;;;;;;;5.32;2.85;;;21.10;99.90;;;;;;5032149;28;20195;-64
2023/10/03 09:34:30;;;;;;;5.03;2.80;;;21.00;99.90;;;;;;5032303;28;20185;-63
2023/10/03 09:37:02;;;;;;;6.03;3.08;;;21.00;99.90;;;;;;5013743;28;20216;-67
2023/10/03 09:39:30;;;;;;;6.25;2.90;;;21.10;99.90;;;;;;5027486;28;20188;-70
2023/10/03 09:42:03;;;;;;;18.10;9.23;;;21.00;99.90;;;;;;5021921;28;20192;-71
2023/10/03 09:44:31;;;;;;;18.85;12.82;;;21.10;99.90;;;;;;5042999;28;20668;-70
2023/10/03 09:47:06;;;;;;;9.88;5.63;;;21.10;99.90;;;;;;5033350;28;20238;-73
2023/10/03 09:49:39;;;;;;;9.90;5.35;;;21.20;99.90;;;;;;5029427;28;20196;-69
2023/10/03 09:52:26;;;;;;;7.35;5.10;;;21.20;99.90;;;;;;5028326;28;20669;-70
2023/10/03 09:55:00;;;;;;;6.47;4.38;;;21.20;99.90;;;;;;5040939;28;20590;-69
2023/10/03 09:57:28;;;;;;;4.65;3.03;;;21.30;99.90;;;;;;5036800;28;20197;-71
2023/10/03 09:59:58;;;;;;;5.35;2.72;;;21.20;99.90;;;;;;5028513;28;20201;-72
2023/10/03 10:02:30;;;;;;;6.22;3.22;;;21.40;99.90;;;;;;5028404;28;20275;-71
2023/10/03 10:05:04;;;;;;;7.05;3.20;;;21.60;99.90;;;;;;5025316;28;20858;-71
2023/10/03 10:08:07;;;;;;;8.25;3.58;;;21.50;99.90;;;;;;5027038;28;20243;-72
2023/10/03 10:10:35;;;;;;;5.88;2.90;;;21.60;99.90;;;;;;5030677;28;20231;-71
2023/10/03 10:13:20;;;;;;;4.75;3.20;;;21.70;99.90;;;;;;5031889;28;20624;-70
2023/10/03 10:16:13;;;;;;;3.47;2.63;;;21.80;99.90;;;;;;5033443;28;20196;-70
2023/10/03 10:18:43;;;;;;;4.18;3.00;;;21.80;99.90;;;;;;5027388;28;20204;-70
2023/10/03 10:21:22;;;;;;;4.35;3.20;;;21.70;99.90;;;;;;5029350;28;20216;-71
2023/10/03 10:24:14;;;;;;;9.32;6.78;;;21.50;99.90;;;;;;5031488;28;20188;-64
2023/10/03 10:26:48;;;;;;;11.68;7.38;;;21.40;99.90;;;;;;5040416;28;20744;-70
2023/10/03 10:29:20;;;;;;;10.43;7.40;;;21.40;99.90;;;;;;5031185;28;20191;-70
2023/10/03 10:31:58;;;;;;;6.75;4.63;;;21.30;99.90;;;;;;5026977;28;20259;-69
2023/10/03 10:34:27;;;;;;;4.53;3.10;;;21.30;99.90;;;;;;5035829;28;20235;-70
2023/10/03 10:36:55;;;;;;;7.47;3.97;;;21.10;99.90;;;;;;5029626;28;20277;-69
2023/10/03 10:39:42;;;;;;;11.90;7.00;;;21.10;99.90;;;;;;5028704;28;20279;-69
2023/10/03 10:42:10;;;;;;;13.90;9.02;;;20.80;99.90;;;;;;5021239;28;20691;-73
2023/10/03 10:45:03;;;;;;;12.32;7.97;;;20.90;99.90;;;;;;5027804;28;20201;-73
2023/10/03 10:47:42;;;;;;;9.25;4.78;;;20.70;99.90;;;;;;5020812;28;20294;-71
2023/10/03 10:50:09;;;;;;;10.05;4.80;;;20.70;99.90;;;;;;5030715;28;20242;-75
2023/10/03 10:52:53;;;;;;;7.13;4.95;;;20.70;99.90;;;;;;5027699;28;20299;-73
2023/10/03 10:55:21;;;;;;;10.95;4.45;;;20.50;99.90;;;;;;5030974;28;20700;-75
2023/10/03 10:58:01;;;;;;;9.38;5.88;;;20.40;99.90;;;;;;5028767;28;20562;-70
2023/10/03 11:00:33;;;;;;;12.32;5.53;;;20.30;99.90;;;;;;5019787;28;20246;-70
2023/10/03 11:03:02;;;;;;;5.38;4.15;;;20.30;99.90;;;;;;5029528;28;20195;-72
2023/10/03 11:05:48;;;;;;;5.05;3.47;;;19.90;99.90;;;;;;5029307;28;20223;-64
2023/10/03 11:08:19;;;;;;;7.97;5.00;;;19.60;99.90;;;;;;5030655;28;20224;-64
2023/10/03 11:10:54;;;;;;;9.05;3.40;;;19.40;99.90;;;;;;5029456;28;20231;-70
2023/10/03 11:13:22;;;;;;;6.70;4.28;;;19.30;99.90;;;;;;5023720;28;20196;-63
2023/10/03 11:15:50;;;;;;;5.10;3.22;;;19.30;99.90;;;;;;5028810;28;20216;-67
2023/10/03 11:18:38;;;;;;;7.65;3.70;;;19.10;99.90;;;;;;5026738;28;20579;-71
2023/10/03 11:21:08;;;;;;;6.97;4.32;;;19.20;99.90;;;;;;5045287;28;20254;-65
2023/10/03 11:23:35;;;;;;;5.60;3.53;;;19.20;99.90;;;;;;5029672;28;20188;-65
2023/10/03 11:26:04;;;;;;;6.43;3.47;;;19.00;99.90;;;;;;5029806;28;20193;-70
2023/10/03 11:28:46;;;;;;;8.50;4.15;;;19.00;99.90;;;;;;5024662;28;20192;-71
2023/10/03 11:31:18;;;;;;;5.80;3.70;;;19.10;99.90;;;;;;5040003;28;20206;-68
2023/10/03 11:33:46;;;;;;;7.15;3.70;;;19.00;99.90;;;;;;5026430;28;20200;-64
2023/10/03 11:36:14;;;;;;;5.85;3.65;;;19.00;99.90;;;;;;5023410;28;20215;-64
2023/10/03 11:38:50;;;;;;;3.72;3.17;;;18.90;99.90;;;;;;5026051;28;20294;-67
2023/10/03 11:41:31;;;;;;;4.72;3.03;;;18.90;99.90;;;;;;5027724;28;20227;-81
2023/10/03 11:43:58;;;;;;;7.85;3.83;;;18.80;99.90;;;;;;5033334;28;20221;-65
2023/10/03 11:46:25;;;;;;;5.25;3.88;;;18.80;99.90;;;;;;5027221;28;20201;-66
2023/10/03 11:49:00;;;;;;;5.95;3.85;;;18.60;99.90;;;;;;5029843;28;20656;-63
2023/10/03 11:51:29;;;;;;;5.68;3.75;;;18.80;99.90;;;;;;5024527;28;20203;-69
2023/10/03 11:53:56;;;;;;;4.32;3.42;;;18.90;99.90;;;;;;5026388;28;20208;-71
2023/10/03 11:56:23;;;;;;;4.63;3.00;;;19.30;99.90;;;;;;5029067;28;20311;-72
2023/10/03 11:58:52;;;;;;;4.85;3.28;;;19.60;99.90;;;;;;5026395;28;20549;-70
2023/10/03 12:01:27;;;;;;;3.05;2.60;;;19.80;99.90;;;;;;5011364;28;20208;-70
2023/10/03 12:04:04;;;;;;;6.03;2.55;;;20.10;99.90;;;;;;5024112;28;20188;-65
2023/10/03 12:06:31;;;;;;;3.33;2.20;;;20.50;99.90;;;;;;5028713;28;20228;-68
2023/10/03 12:08:58;;;;;;;4.35;3.00;;;20.60;99.90;;;;;;5028659;28;20303;-68
2023/10/03 12:11:25;;;;;;;2.55;2.22;;;20.80;99.90;;;;;;5029345;28;20615;-64
2023/10/03 12:13:53;;;;;;;4.47;2.47;;;20.90;99.90;;;;;;5029601;28;20241;-71
2023/10/03 12:16:20;;;;;;;3.38;2.42;;;20.80;99.90;;;;;;5028742;28;20227;-67
2023/10/03 12:18:48;;;;;;;2.53;2.22;;;21.00;99.90;;;;;;5029052;28;20203;-66
2023/10/03 12:21:15;;;;;;;4.75;3.35;;;21.10;99.90;;;;;;5029351;28;20378;-67
2023/10/03 12:23:43;;;;;;;3.90;2.65;;;21.60;99.90;;;;;;5027173;28;20275;-69
2023/10/03 12:26:11;;;;;;;14.02;9.20;;;22.00;99.90;;;;;;5029526;28;20231;-66
2023/10/03 12:28:54;;;;;;;21.10;11.55;;;22.20;99.90;;;;;;5011873;28;20200;-68
2023/10/03 12:31:25;;;;;;;8.05;4.57;;;22.20;99.90;;;;;;5027922;28;20189;-68
2023/10/03 12:33:53;;;;;;;4.97;3.13;;;22.10;99.90;;;;;;5027203;28;20733;-66
2023/10/03 12:36:21;;;;;;;2.75;1.33;;;21.60;99.90;;;;;;5023606;28;20315;-75
2023/10/03 12:38:48;;;;;;;4.10;1.77;;;21.20;99.90;;;;;;5028936;28;20232;-73
2023/10/03 12:41:15;;;;;;;3.95;2.75;;;20.80;99.90;;;;;;5027884;28;20296;-84
2023/10/03 12:43:46;;;;;;;9.75;4.88;;;20.70;99.90;;;;;;5027217;28;20386;-73
2023/10/03 12:46:18;;;;;;;4.45;2.17;;;20.60;99.90;;;;;;5021506;28;20680;-74
2023/10/03 12:48:45;;;;;;;7.05;2.72;;;20.30;99.90;;;;;;5030359;28;20660;-71
2023/10/03 12:51:14;;;;;;;2.08;1.88;;;19.80;99.90;;;;;;5025053;28;20305;-75
2023/10/03 12:53:41;;;;;;;1.27;1.00;;;19.60;99.90;;;;;;5018896;28;20572;-71
2023/10/03 12:56:08;;;;;;;3.38;1.67;;;19.30;99.90;;;;;;5031798;28;20209;-74
2023/10/03 12:58:36;;;;;;;2.60;1.35;;;19.20;99.90;;;;;;5031420;28;20205;-71
2023/10/03 13:01:03;;;;;;;3.40;1.60;;;19.10;99.90;;;;;;5019367;28;20204;-72
2023/10/03 13:03:32;;;;;;;3.63;1.08;;;19.00;99.90;;;;;;5022252;28;20232;-66
2023/10/03 13:06:00;;;;;;;3.22;1.20;;;18.90;99.90;;;;;;5024682;28;20267;-67
2023/10/03 13:08:28;;;;;;;2.88;1.85;;;18.80;99.90;;;;;;5022677;28;20623;-65
2023/10/03 13:10:58;;;;;;;2.20;1.33;;;18.90;99.90;;;;;;5026766;28;20197;-74